sensor_id;sensor_type;location;lat;lon;timestamp;temperature;humidity
67364;HTU21D;54250;45.572;38.086;2023-06-05T00:01:46;17.90;80.19
67364;HTU21D;54250;45.572;38.086;2023-06-05T00:04:12;17.91;80.20
67364;HTU21D;54250;45.572;38.086;2023-06-05T00:06:38;17.94;80.36
67364;HTU21D;54250;45.572;38.086;2023-06-05T00:09:06;17.96;80.27
67364;HTU21D;54250;45.572;38.086;2023-06-05T00:11:32;18.00;80.38
67364;HTU21D;54250;45.572;38.086;2023-06-05T00:13:58;18.05;80.51
67364;HTU21D;54250;45.572;38.086;2023-06-05T00:16:24;18.08;80.60
67364;HTU21D;54250;45.572;38.086;2023-06-05T00:18:50;18.10;80.77
67364;HTU21D;54250;45.572;38.086;2023-06-05T00:21:16;18.09;80.93
67364;HTU21D;54250;45.572;38.086;2023-06-05T00:23:43;18.07;81.01
67364;HTU21D;54250;45.572;38.086;2023-06-05T00:26:09;18.04;81.20
67364;HTU21D;54250;45.572;38.086;2023-06-05T00:28:35;17.96;81.33
67364;HTU21D;54250;45.572;38.086;2023-06-05T00:31:01;17.89;81.71
67364;HTU21D;54250;45.572;38.086;2023-06-05T00:33:27;17.82;81.83
67364;HTU21D;54250;45.572;38.086;2023-06-05T00:35:56;17.74;82.19
67364;HTU21D;54250;45.572;38.086;2023-06-05T00:38:24;17.64;82.60
67364;HTU21D;54250;45.572;38.086;2023-06-05T00:40:50;17.54;82.92
67364;HTU21D;54250;45.572;38.086;2023-06-05T00:43:18;17.33;83.88
67364;HTU21D;54250;45.572;38.086;2023-06-05T00:45:44;16.99;85.24
67364;HTU21D;54250;45.572;38.086;2023-06-05T00:48:10;16.66;86.21
67364;HTU21D;54250;45.572;38.086;2023-06-05T00:50:39;16.47;86.42
67364;HTU21D;54250;45.572;38.086;2023-06-05T00:53:06;16.33;86.75
67364;HTU21D;54250;45.572;38.086;2023-06-05T00:55:32;16.20;86.77
67364;HTU21D;54250;45.572;38.086;2023-06-05T00:58:00;16.11;86.72
67364;HTU21D;54250;45.572;38.086;2023-06-05T01:00:27;15.99;87.34
67364;HTU21D;54250;45.572;38.086;2023-06-05T01:02:53;15.92;87.48
67364;HTU21D;54250;45.572;38.086;2023-06-05T01:05:24;15.83;87.79
67364;HTU21D;54250;45.572;38.086;2023-06-05T01:07:50;15.77;87.95
67364;HTU21D;54250;45.572;38.086;2023-06-05T01:10:17;15.70;88.11
67364;HTU21D;54250;45.572;38.086;2023-06-05T01:12:49;15.67;88.05
67364;HTU21D;54250;45.572;38.086;2023-06-05T01:15:18;15.63;87.97
67364;HTU21D;54250;45.572;38.086;2023-06-05T01:17:45;15.59;88.25
67364;HTU21D;54250;45.572;38.086;2023-06-05T01:20:13;15.58;88.18
67364;HTU21D;54250;45.572;38.086;2023-06-05T01:22:39;15.55;88.25
67364;HTU21D;54250;45.572;38.086;2023-06-05T01:25:07;15.53;88.51
67364;HTU21D;54250;45.572;38.086;2023-06-05T01:27:39;15.48;88.55
67364;HTU21D;54250;45.572;38.086;2023-06-05T01:33:11;15.34;88.90
67364;HTU21D;54250;45.572;38.086;2023-06-05T01:35:40;15.30;88.99
67364;HTU21D;54250;45.572;38.086;2023-06-05T01:38:08;15.27;89.05
67364;HTU21D;54250;45.572;38.086;2023-06-05T01:40:37;15.25;89.16
67364;HTU21D;54250;45.572;38.086;2023-06-05T01:43:05;15.23;89.23
67364;HTU21D;54250;45.572;38.086;2023-06-05T01:45:34;15.21;89.27
67364;HTU21D;54250;45.572;38.086;2023-06-05T01:48:04;15.22;89.43
67364;HTU21D;54250;45.572;38.086;2023-06-05T01:50:34;15.23;89.57
67364;HTU21D;54250;45.572;38.086;2023-06-05T01:53:01;15.23;89.54
67364;HTU21D;54250;45.572;38.086;2023-06-05T01:55:28;15.19;89.66
67364;HTU21D;54250;45.572;38.086;2023-06-05T01:57:54;15.17;89.69
67364;HTU21D;54250;45.572;38.086;2023-06-05T02:00:20;15.14;89.82
67364;HTU21D;54250;45.572;38.086;2023-06-05T02:02:48;15.14;89.81
67364;HTU21D;54250;45.572;38.086;2023-06-05T02:05:16;15.11;89.96
67364;HTU21D;54250;45.572;38.086;2023-06-05T02:07:44;15.10;89.95
67364;HTU21D;54250;45.572;38.086;2023-06-05T02:10:15;15.07;89.92
67364;HTU21D;54250;45.572;38.086;2023-06-05T02:12:44;15.04;90.05
67364;HTU21D;54250;45.572;38.086;2023-06-05T02:15:11;15.06;90.08
67364;HTU21D;54250;45.572;38.086;2023-06-05T02:17:41;15.04;90.17
67364;HTU21D;54250;45.572;38.086;2023-06-05T02:20:16;15.06;90.21
67364;HTU21D;54250;45.572;38.086;2023-06-05T02:22:43;15.06;90.21
67364;HTU21D;54250;45.572;38.086;2023-06-05T02:25:15;15.02;90.31
67364;HTU21D;54250;45.572;38.086;2023-06-05T02:27:41;15.04;90.39
67364;HTU21D;54250;45.572;38.086;2023-06-05T02:30:09;15.04;90.44
67364;HTU21D;54250;45.572;38.086;2023-06-05T02:32:35;15.08;90.53
67364;HTU21D;54250;45.572;38.086;2023-06-05T02:35:02;15.07;90.53
67364;HTU21D;54250;45.572;38.086;2023-06-05T02:37:30;15.04;90.58
67364;HTU21D;54250;45.572;38.086;2023-06-05T02:40:04;15.01;90.64
67364;HTU21D;54250;45.572;38.086;2023-06-05T02:42:31;14.97;90.68
67364;HTU21D;54250;45.572;38.086;2023-06-05T02:44:57;14.96;90.74
67364;HTU21D;54250;45.572;38.086;2023-06-05T02:47:24;14.93;90.71
67364;HTU21D;54250;45.572;38.086;2023-06-05T02:49:50;14.88;90.71
67364;HTU21D;54250;45.572;38.086;2023-06-05T02:52:16;14.86;90.77
67364;HTU21D;54250;45.572;38.086;2023-06-05T02:54:43;14.86;90.79
67364;HTU21D;54250;45.572;38.086;2023-06-05T02:57:10;14.85;90.73
67364;HTU21D;54250;45.572;38.086;2023-06-05T02:59:37;14.87;90.83
67364;HTU21D;54250;45.572;38.086;2023-06-05T03:02:10;14.87;90.82
67364;HTU21D;54250;45.572;38.086;2023-06-05T03:04:37;14.87;90.73
67364;HTU21D;54250;45.572;38.086;2023-06-05T03:07:07;14.88;90.66
67364;HTU21D;54250;45.572;38.086;2023-06-05T03:09:36;14.91;90.61
67364;HTU21D;54250;45.572;38.086;2023-06-05T03:12:03;14.95;90.58
67364;HTU21D;54250;45.572;38.086;2023-06-05T03:14:30;14.96;90.52
67364;HTU21D;54250;45.572;38.086;2023-06-05T03:16:57;15.01;90.44
67364;HTU21D;54250;45.572;38.086;2023-06-05T03:19:25;15.04;90.47
67364;HTU21D;54250;45.572;38.086;2023-06-05T03:21:52;15.07;90.37
67364;HTU21D;54250;45.572;38.086;2023-06-05T03:24:20;15.10;90.37
67364;HTU21D;54250;45.572;38.086;2023-06-05T03:26:52;15.12;90.32
67364;HTU21D;54250;45.572;38.086;2023-06-05T03:29:19;15.17;90.41
67364;HTU21D;54250;45.572;38.086;2023-06-05T03:31:46;15.22;90.47
67364;HTU21D;54250;45.572;38.086;2023-06-05T03:34:13;15.28;90.52
67364;HTU21D;54250;45.572;38.086;2023-06-05T03:36:40;15.32;90.47
67364;HTU21D;54250;45.572;38.086;2023-06-05T03:39:09;15.38;90.47
67364;HTU21D;54250;45.572;38.086;2023-06-05T03:41:38;15.42;90.41
67364;HTU21D;54250;45.572;38.086;2023-06-05T03:44:04;15.46;90.40
67364;HTU21D;54250;45.572;38.086;2023-06-05T03:46:32;15.53;90.30
67364;HTU21D;54250;45.572;38.086;2023-06-05T03:49:01;15.60;90.17
67364;HTU21D;54250;45.572;38.086;2023-06-05T03:51:31;15.66;90.08
67364;HTU21D;54250;45.572;38.086;2023-06-05T03:53:58;15.75;89.88
67364;HTU21D;54250;45.572;38.086;2023-06-05T03:56:37;15.84;89.73
67364;HTU21D;54250;45.572;38.086;2023-06-05T03:59:10;15.93;89.41
67364;HTU21D;54250;45.572;38.086;2023-06-05T04:01:46;16.04;89.21
67364;HTU21D;54250;45.572;38.086;2023-06-05T04:04:13;16.17;89.02
67364;HTU21D;54250;45.572;38.086;2023-06-05T04:06:40;16.34;88.83
67364;HTU21D;54250;45.572;38.086;2023-06-05T04:09:08;16.55;88.31
67364;HTU21D;54250;45.572;38.086;2023-06-05T04:11:42;16.75;87.89
67364;HTU21D;54250;45.572;38.086;2023-06-05T04:14:10;17.06;87.16
67364;HTU21D;54250;45.572;38.086;2023-06-05T04:16:39;17.56;86.16
67364;HTU21D;54250;45.572;38.086;2023-06-05T04:19:06;18.36;84.32
67364;HTU21D;54250;45.572;38.086;2023-06-05T04:21:33;19.24;82.23
67364;HTU21D;54250;45.572;38.086;2023-06-05T04:24:08;19.74;81.01
67364;HTU21D;54250;45.572;38.086;2023-06-05T04:26:40;19.86;80.81
67364;HTU21D;54250;45.572;38.086;2023-06-05T04:29:09;20.07;80.65
67364;HTU21D;54250;45.572;38.086;2023-06-05T04:31:44;20.85;79.30
67364;HTU21D;54250;45.572;38.086;2023-06-05T04:34:11;22.12;76.69
67364;HTU21D;54250;45.572;38.086;2023-06-05T04:36:38;23.03;74.66
67364;HTU21D;54250;45.572;38.086;2023-06-05T04:39:04;23.79;72.81
67364;HTU21D;54250;45.572;38.086;2023-06-05T04:41:33;24.50;71.59
67364;HTU21D;54250;45.572;38.086;2023-06-05T04:44:02;25.31;70.13
67364;HTU21D;54250;45.572;38.086;2023-06-05T04:46:30;26.32;67.68
67364;HTU21D;54250;45.572;38.086;2023-06-05T04:48:57;27.57;64.82
67364;HTU21D;54250;45.572;38.086;2023-06-05T04:51:24;28.85;61.92
67364;HTU21D;54250;45.572;38.086;2023-06-05T04:53:52;29.82;60.32
67364;HTU21D;54250;45.572;38.086;2023-06-05T04:56:22;30.06;58.99
67364;HTU21D;54250;45.572;38.086;2023-06-05T04:58:49;30.46;58.40
67364;HTU21D;54250;45.572;38.086;2023-06-05T05:01:18;31.50;55.93
67364;HTU21D;54250;45.572;38.086;2023-06-05T05:03:48;30.99;56.59
67364;HTU21D;54250;45.572;38.086;2023-06-05T05:06:16;29.58;58.30
67364;HTU21D;54250;45.572;38.086;2023-06-05T05:08:43;29.22;58.37
67364;HTU21D;54250;45.572;38.086;2023-06-05T05:11:12;30.07;55.79
67364;HTU21D;54250;45.572;38.086;2023-06-05T05:13:40;31.43;53.46
67364;HTU21D;54250;45.572;38.086;2023-06-05T05:16:07;31.89;51.66
67364;HTU21D;54250;45.572;38.086;2023-06-05T05:18:34;30.94;53.24
67364;HTU21D;54250;45.572;38.086;2023-06-05T05:21:01;30.48;54.07
67364;HTU21D;54250;45.572;38.086;2023-06-05T05:23:31;31.84;51.88
67364;HTU21D;54250;45.572;38.086;2023-06-05T05:25:57;33.71;48.38
67364;HTU21D;54250;45.572;38.086;2023-06-05T05:28:23;35.11;46.23
67364;HTU21D;54250;45.572;38.086;2023-06-05T05:30:51;35.39;45.70
67364;HTU21D;54250;45.572;38.086;2023-06-05T05:33:17;34.95;46.10
67364;HTU21D;54250;45.572;38.086;2023-06-05T05:35:44;33.99;47.50
67364;HTU21D;54250;45.572;38.086;2023-06-05T05:38:10;33.33;48.37
67364;HTU21D;54250;45.572;38.086;2023-06-05T05:40:36;34.51;46.12
67364;HTU21D;54250;45.572;38.086;2023-06-05T05:43:01;35.67;43.64
67364;HTU21D;54250;45.572;38.086;2023-06-05T05:45:27;33.80;45.69
67364;HTU21D;54250;45.572;38.086;2023-06-05T05:47:53;32.31;48.41
67364;HTU21D;54250;45.572;38.086;2023-06-05T05:50:19;32.14;48.04
67364;HTU21D;54250;45.572;38.086;2023-06-05T05:52:45;32.29;47.92
67364;HTU21D;54250;45.572;38.086;2023-06-05T05:55:11;31.76;48.13
67364;HTU21D;54250;45.572;38.086;2023-06-05T05:57:37;30.42;50.19
67364;HTU21D;54250;45.572;38.086;2023-06-05T06:00:03;29.64;51.14
67364;HTU21D;54250;45.572;38.086;2023-06-05T06:02:37;28.59;52.72
67364;HTU21D;54250;45.572;38.086;2023-06-05T06:05:03;27.84;53.74
67364;HTU21D;54250;45.572;38.086;2023-06-05T06:07:29;27.44;54.64
67364;HTU21D;54250;45.572;38.086;2023-06-05T06:09:56;27.49;54.36
67364;HTU21D;54250;45.572;38.086;2023-06-05T06:12:22;27.69;54.10
67364;HTU21D;54250;45.572;38.086;2023-06-05T06:14:50;27.32;54.21
67364;HTU21D;54250;45.572;38.086;2023-06-05T06:17:16;26.94;55.18
67364;HTU21D;54250;45.572;38.086;2023-06-05T06:19:43;26.78;55.61
67364;HTU21D;54250;45.572;38.086;2023-06-05T06:22:09;26.54;55.68
67364;HTU21D;54250;45.572;38.086;2023-06-05T06:24:39;26.18;56.29
67364;HTU21D;54250;45.572;38.086;2023-06-05T06:27:05;26.05;56.84
67364;HTU21D;54250;45.572;38.086;2023-06-05T06:29:32;26.33;56.32
67364;HTU21D;54250;45.572;38.086;2023-06-05T06:31:58;26.67;55.90
67364;HTU21D;54250;45.572;38.086;2023-06-05T06:34:24;26.66;55.92
67364;HTU21D;54250;45.572;38.086;2023-06-05T06:36:50;26.57;56.10
67364;HTU21D;54250;45.572;38.086;2023-06-05T06:39:16;26.41;56.20
67364;HTU21D;54250;45.572;38.086;2023-06-05T06:41:44;26.30;56.18
67364;HTU21D;54250;45.572;38.086;2023-06-05T06:44:10;26.31;56.26
67364;HTU21D;54250;45.572;38.086;2023-06-05T06:46:36;26.91;55.52
67364;HTU21D;54250;45.572;38.086;2023-06-05T06:49:04;27.82;53.91
67364;HTU21D;54250;45.572;38.086;2023-06-05T06:51:32;28.00;53.04
67364;HTU21D;54250;45.572;38.086;2023-06-05T06:53:58;27.80;53.38
67364;HTU21D;54250;45.572;38.086;2023-06-05T06:56:24;28.01;53.48
67364;HTU21D;54250;45.572;38.086;2023-06-05T06:58:53;30.32;49.85
67364;HTU21D;54250;45.572;38.086;2023-06-05T07:01:20;32.32;46.73
67364;HTU21D;54250;45.572;38.086;2023-06-05T07:03:46;33.68;44.56
67364;HTU21D;54250;45.572;38.086;2023-06-05T07:06:12;33.35;45.46
67364;HTU21D;54250;45.572;38.086;2023-06-05T07:08:39;32.39;46.40
67364;HTU21D;54250;45.572;38.086;2023-06-05T07:11:06;32.22;47.07
67364;HTU21D;54250;45.572;38.086;2023-06-05T07:13:32;32.17;47.04
67364;HTU21D;54250;45.572;38.086;2023-06-05T07:15:58;31.96;47.54
67364;HTU21D;54250;45.572;38.086;2023-06-05T07:18:24;31.83;46.97
67364;HTU21D;54250;45.572;38.086;2023-06-05T07:20:50;32.50;45.46
67364;HTU21D;54250;45.572;38.086;2023-06-05T07:23:16;32.03;45.43
67364;HTU21D;54250;45.572;38.086;2023-06-05T07:25:44;31.42;47.16
67364;HTU21D;54250;45.572;38.086;2023-06-05T07:28:11;30.54;48.33
67364;HTU21D;54250;45.572;38.086;2023-06-05T07:30:39;30.17;48.97
67364;HTU21D;54250;45.572;38.086;2023-06-05T07:33:09;30.04;49.85
67364;HTU21D;54250;45.572;38.086;2023-06-05T07:35:35;30.06;49.55
67364;HTU21D;54250;45.572;38.086;2023-06-05T07:38:02;31.11;48.01
67364;HTU21D;54250;45.572;38.086;2023-06-05T07:40:28;32.57;45.51
67364;HTU21D;54250;45.572;38.086;2023-06-05T07:42:57;32.62;45.71
67364;HTU21D;54250;45.572;38.086;2023-06-05T07:45:23;32.45;46.18
67364;HTU21D;54250;45.572;38.086;2023-06-05T07:47:49;32.07;47.02
67364;HTU21D;54250;45.572;38.086;2023-06-05T07:50:15;33.15;45.29
67364;HTU21D;54250;45.572;38.086;2023-06-05T07:52:41;35.42;42.36
67364;HTU21D;54250;45.572;38.086;2023-06-05T07:55:07;36.43;40.57
67364;HTU21D;54250;45.572;38.086;2023-06-05T07:57:33;35.52;41.18
67364;HTU21D;54250;45.572;38.086;2023-06-05T08:00:00;34.48;42.61
67364;HTU21D;54250;45.572;38.086;2023-06-05T08:02:25;35.68;41.21
67364;HTU21D;54250;45.572;38.086;2023-06-05T08:04:51;35.78;41.17
67364;HTU21D;54250;45.572;38.086;2023-06-05T08:07:17;35.95;41.20
67364;HTU21D;54250;45.572;38.086;2023-06-05T08:09:43;37.50;38.36
67364;HTU21D;54250;45.572;38.086;2023-06-05T08:12:09;38.67;36.44
67364;HTU21D;54250;45.572;38.086;2023-06-05T08:14:35;38.50;36.69
67364;HTU21D;54250;45.572;38.086;2023-06-05T08:17:02;37.86;37.53
67364;HTU21D;54250;45.572;38.086;2023-06-05T08:19:29;37.20;38.61
67364;HTU21D;54250;45.572;38.086;2023-06-05T08:21:55;36.57;39.24
67364;HTU21D;54250;45.572;38.086;2023-06-05T08:24:22;35.53;40.24
67364;HTU21D;54250;45.572;38.086;2023-06-05T08:26:48;34.98;40.88
67364;HTU21D;54250;45.572;38.086;2023-06-05T08:29:14;34.83;40.94
67364;HTU21D;54250;45.572;38.086;2023-06-05T08:31:40;34.76;40.71
67364;HTU21D;54250;45.572;38.086;2023-06-05T08:34:06;36.25;39.10
67364;HTU21D;54250;45.572;38.086;2023-06-05T08:36:32;36.85;38.26
67364;HTU21D;54250;45.572;38.086;2023-06-05T08:39:00;37.33;37.55
67364;HTU21D;54250;45.572;38.086;2023-06-05T08:41:26;37.79;37.06
67364;HTU21D;54250;45.572;38.086;2023-06-05T08:43:52;37.85;36.64
67364;HTU21D;54250;45.572;38.086;2023-06-05T08:46:18;37.76;36.84
67364;HTU21D;54250;45.572;38.086;2023-06-05T08:48:46;37.90;36.69
67364;HTU21D;54250;45.572;38.086;2023-06-05T08:51:17;37.45;37.21
67364;HTU21D;54250;45.572;38.086;2023-06-05T08:53:56;37.06;37.80
67364;HTU21D;54250;45.572;38.086;2023-06-05T08:56:24;36.83;37.88
67364;HTU21D;54250;45.572;38.086;2023-06-05T08:58:53;36.82;37.81
67364;HTU21D;54250;45.572;38.086;2023-06-05T09:01:20;36.59;38.23
67364;HTU21D;54250;45.572;38.086;2023-06-05T09:03:46;36.62;37.99
67364;HTU21D;54250;45.572;38.086;2023-06-05T09:06:12;36.69;38.25
67364;HTU21D;54250;45.572;38.086;2023-06-05T09:08:39;36.56;38.32
67364;HTU21D;54250;45.572;38.086;2023-06-05T09:11:26;35.03;40.16
67364;HTU21D;54250;45.572;38.086;2023-06-05T09:13:54;33.63;42.29
67364;HTU21D;54250;45.572;38.086;2023-06-05T09:16:22;32.70;44.59
67364;HTU21D;54250;45.572;38.086;2023-06-05T09:18:55;32.00;45.24
67364;HTU21D;54250;45.572;38.086;2023-06-05T09:21:23;31.38;46.26
67364;HTU21D;54250;45.572;38.086;2023-06-05T09:24:15;30.90;46.76
67364;HTU21D;54250;45.572;38.086;2023-06-05T09:27:10;30.64;47.60
67364;HTU21D;54250;45.572;38.086;2023-06-05T09:29:39;30.27;47.97
67364;HTU21D;54250;45.572;38.086;2023-06-05T09:32:16;30.09;48.39
67364;HTU21D;54250;45.572;38.086;2023-06-05T09:34:43;29.78;48.82
67364;HTU21D;54250;45.572;38.086;2023-06-05T09:37:12;29.31;50.23
67364;HTU21D;54250;45.572;38.086;2023-06-05T09:39:40;28.99;50.69
67364;HTU21D;54250;45.572;38.086;2023-06-05T09:42:08;28.67;51.73
67364;HTU21D;54250;45.572;38.086;2023-06-05T09:44:35;28.56;51.86
67364;HTU21D;54250;45.572;38.086;2023-06-05T09:47:07;28.47;52.73
67364;HTU21D;54250;45.572;38.086;2023-06-05T09:52:09;28.27;52.63
67364;HTU21D;54250;45.572;38.086;2023-06-05T09:54:37;28.15;53.17
67364;HTU21D;54250;45.572;38.086;2023-06-05T09:57:07;28.01;53.22
67364;HTU21D;54250;45.572;38.086;2023-06-05T09:59:50;28.10;53.65
67364;HTU21D;54250;45.572;38.086;2023-06-05T10:02:33;28.21;54.02
67364;HTU21D;54250;45.572;38.086;2023-06-05T10:05:00;28.53;54.11
67364;HTU21D;54250;45.572;38.086;2023-06-05T10:07:32;28.48;53.27
67364;HTU21D;54250;45.572;38.086;2023-06-05T10:10:01;28.12;53.30
67364;HTU21D;54250;45.572;38.086;2023-06-05T10:12:30;27.93;54.07
67364;HTU21D;54250;45.572;38.086;2023-06-05T10:14:57;28.20;54.26
67364;HTU21D;54250;45.572;38.086;2023-06-05T10:17:23;28.37;53.47
67364;HTU21D;54250;45.572;38.086;2023-06-05T10:19:50;28.54;53.67
67364;HTU21D;54250;45.572;38.086;2023-06-05T10:22:19;28.78;53.56
67364;HTU21D;54250;45.572;38.086;2023-06-05T10:24:51;28.86;52.88
67364;HTU21D;54250;45.572;38.086;2023-06-05T10:30:33;28.58;53.18
67364;HTU21D;54250;45.572;38.086;2023-06-05T10:33:31;28.61;53.04
67364;HTU21D;54250;45.572;38.086;2023-06-05T10:38:29;28.24;54.15
67364;HTU21D;54250;45.572;38.086;2023-06-05T10:40:58;28.16;53.95
67364;HTU21D;54250;45.572;38.086;2023-06-05T10:43:47;27.93;54.02
67364;HTU21D;54250;45.572;38.086;2023-06-05T10:51:49;26.90;55.48
67364;HTU21D;54250;45.572;38.086;2023-06-05T10:56:57;26.90;55.61
67364;HTU21D;54250;45.572;38.086;2023-06-05T11:07:18;26.93;56.04
67364;HTU21D;54250;45.572;38.086;2023-06-05T11:15:02;27.21;56.02
67364;HTU21D;54250;45.572;38.086;2023-06-05T11:17:34;27.22;56.11
67364;HTU21D;54250;45.572;38.086;2023-06-05T11:20:04;27.35;55.94
67364;HTU21D;54250;45.572;38.086;2023-06-05T11:22:31;27.44;55.81
67364;HTU21D;54250;45.572;38.086;2023-06-05T11:30:13;27.08;55.74
67364;HTU21D;54250;45.572;38.086;2023-06-05T11:32:39;27.02;56.07
67364;HTU21D;54250;45.572;38.086;2023-06-05T11:35:06;27.16;56.05
67364;HTU21D;54250;45.572;38.086;2023-06-05T11:37:34;27.34;55.71
67364;HTU21D;54250;45.572;38.086;2023-06-05T11:40:05;27.22;55.51
67364;HTU21D;54250;45.572;38.086;2023-06-05T11:42:36;26.98;55.61
67364;HTU21D;54250;45.572;38.086;2023-06-05T11:45:02;26.90;55.71
67364;HTU21D;54250;45.572;38.086;2023-06-05T11:47:29;26.75;55.64
67364;HTU21D;54250;45.572;38.086;2023-06-05T11:50:12;26.58;55.84
67364;HTU21D;54250;45.572;38.086;2023-06-05T11:52:39;26.52;55.99
67364;HTU21D;54250;45.572;38.086;2023-06-05T11:55:16;26.73;56.12
67364;HTU21D;54250;45.572;38.086;2023-06-05T11:57:46;26.75;55.26
67364;HTU21D;54250;45.572;38.086;2023-06-05T12:00:16;26.81;55.59
67364;HTU21D;54250;45.572;38.086;2023-06-05T12:02:48;27.05;55.21
67364;HTU21D;54250;45.572;38.086;2023-06-05T12:05:14;27.26;54.60
67364;HTU21D;54250;45.572;38.086;2023-06-05T12:07:41;27.25;54.13
67364;HTU21D;54250;45.572;38.086;2023-06-05T12:10:08;27.15;54.68
67364;HTU21D;54250;45.572;38.086;2023-06-05T12:12:36;27.34;54.61
67364;HTU21D;54250;45.572;38.086;2023-06-05T12:15:16;27.55;54.39
67364;HTU21D;54250;45.572;38.086;2023-06-05T12:18:03;27.60;54.10
67364;HTU21D;54250;45.572;38.086;2023-06-05T12:20:40;27.66;54.38
67364;HTU21D;54250;45.572;38.086;2023-06-05T12:23:06;27.84;54.55
67364;HTU21D;54250;45.572;38.086;2023-06-05T12:25:32;27.78;54.09
67364;HTU21D;54250;45.572;38.086;2023-06-05T12:27:58;27.47;54.46
67364;HTU21D;54250;45.572;38.086;2023-06-05T12:30:25;27.04;55.03
67364;HTU21D;54250;45.572;38.086;2023-06-05T12:32:51;26.71;55.60
67364;HTU21D;54250;45.572;38.086;2023-06-05T12:35:22;26.63;55.70
67364;HTU21D;54250;45.572;38.086;2023-06-05T12:37:51;26.50;54.71
67364;HTU21D;54250;45.572;38.086;2023-06-05T12:40:18;26.28;55.36
67364;HTU21D;54250;45.572;38.086;2023-06-05T12:42:48;26.23;55.61
67364;HTU21D;54250;45.572;38.086;2023-06-05T12:45:14;26.36;55.16
67364;HTU21D;54250;45.572;38.086;2023-06-05T12:47:41;26.45;54.65
67364;HTU21D;54250;45.572;38.086;2023-06-05T12:50:09;26.57;54.37
67364;HTU21D;54250;45.572;38.086;2023-06-05T12:52:41;26.69;53.72
67364;HTU21D;54250;45.572;38.086;2023-06-05T12:55:08;26.73;53.28
67364;HTU21D;54250;45.572;38.086;2023-06-05T12:57:35;26.66;53.04
67364;HTU21D;54250;45.572;38.086;2023-06-05T13:00:04;26.60;53.39
67364;HTU21D;54250;45.572;38.086;2023-06-05T13:02:41;26.65;53.81
67364;HTU21D;54250;45.572;38.086;2023-06-05T13:05:10;26.64;53.26
67364;HTU21D;54250;45.572;38.086;2023-06-05T13:07:37;26.45;53.54
67364;HTU21D;54250;45.572;38.086;2023-06-05T13:10:06;26.10;53.49
67364;HTU21D;54250;45.572;38.086;2023-06-05T13:12:32;25.79;53.79
67364;HTU21D;54250;45.572;38.086;2023-06-05T13:14:58;25.52;54.10
67364;HTU21D;54250;45.572;38.086;2023-06-05T13:17:26;25.37;54.56
67364;HTU21D;54250;45.572;38.086;2023-06-05T13:19:52;25.32;54.87
67364;HTU21D;54250;45.572;38.086;2023-06-05T13:22:19;25.18;55.54
67364;HTU21D;54250;45.572;38.086;2023-06-05T13:24:46;25.09;55.72
67364;HTU21D;54250;45.572;38.086;2023-06-05T13:27:12;25.02;55.44
67364;HTU21D;54250;45.572;38.086;2023-06-05T13:29:39;24.90;55.83
67364;HTU21D;54250;45.572;38.086;2023-06-05T13:32:06;24.86;56.00
67364;HTU21D;54250;45.572;38.086;2023-06-05T13:34:32;24.77;56.00
67364;HTU21D;54250;45.572;38.086;2023-06-05T13:36:59;24.62;56.08
67364;HTU21D;54250;45.572;38.086;2023-06-05T13:39:25;24.50;56.16
67364;HTU21D;54250;45.572;38.086;2023-06-05T13:41:51;24.41;56.30
67364;HTU21D;54250;45.572;38.086;2023-06-05T13:44:17;24.38;56.39
67364;HTU21D;54250;45.572;38.086;2023-06-05T13:46:43;24.40;56.32
67364;HTU21D;54250;45.572;38.086;2023-06-05T13:49:09;24.39;56.60
67364;HTU21D;54250;45.572;38.086;2023-06-05T13:51:36;24.35;56.43
67364;HTU21D;54250;45.572;38.086;2023-06-05T13:54:04;24.31;56.77
67364;HTU21D;54250;45.572;38.086;2023-06-05T13:56:31;24.27;57.22
67364;HTU21D;54250;45.572;38.086;2023-06-05T13:58:57;24.16;57.01
67364;HTU21D;54250;45.572;38.086;2023-06-05T14:01:24;24.05;57.24
67364;HTU21D;54250;45.572;38.086;2023-06-05T14:03:50;23.89;57.44
67364;HTU21D;54250;45.572;38.086;2023-06-05T14:06:17;23.81;57.43
67364;HTU21D;54250;45.572;38.086;2023-06-05T14:08:44;23.71;57.62
67364;HTU21D;54250;45.572;38.086;2023-06-05T14:11:10;23.60;58.00
67364;HTU21D;54250;45.572;38.086;2023-06-05T14:13:36;23.58;57.99
67364;HTU21D;54250;45.572;38.086;2023-06-05T14:16:02;23.50;58.24
67364;HTU21D;54250;45.572;38.086;2023-06-05T14:18:29;23.37;58.69
67364;HTU21D;54250;45.572;38.086;2023-06-05T14:20:56;23.25;58.92
67364;HTU21D;54250;45.572;38.086;2023-06-05T14:23:22;23.12;59.11
67364;HTU21D;54250;45.572;38.086;2023-06-05T14:25:50;23.09;59.19
67364;HTU21D;54250;45.572;38.086;2023-06-05T14:28:17;23.18;59.19
67364;HTU21D;54250;45.572;38.086;2023-06-05T14:30:46;23.44;58.97
67364;HTU21D;54250;45.572;38.086;2023-06-05T14:33:12;23.73;58.52
67364;HTU21D;54250;45.572;38.086;2023-06-05T14:35:38;23.98;57.61
67364;HTU21D;54250;45.572;38.086;2023-06-05T14:38:04;24.18;57.55
67364;HTU21D;54250;45.572;38.086;2023-06-05T14:40:30;24.29;57.05
67364;HTU21D;54250;45.572;38.086;2023-06-05T14:42:58;24.23;57.50
67364;HTU21D;54250;45.572;38.086;2023-06-05T14:45:25;24.10;57.71
67364;HTU21D;54250;45.572;38.086;2023-06-05T14:47:51;23.94;57.89
67364;HTU21D;54250;45.572;38.086;2023-06-05T14:50:17;23.81;58.26
67364;HTU21D;54250;45.572;38.086;2023-06-05T14:52:43;23.71;58.54
67364;HTU21D;54250;45.572;38.086;2023-06-05T14:55:09;23.66;58.49
67364;HTU21D;54250;45.572;38.086;2023-06-05T14:57:36;23.60;58.47
67364;HTU21D;54250;45.572;38.086;2023-06-05T15:00:03;23.56;58.26
67364;HTU21D;54250;45.572;38.086;2023-06-05T15:02:30;23.55;58.13
67364;HTU21D;54250;45.572;38.086;2023-06-05T15:04:57;23.51;58.17
67364;HTU21D;54250;45.572;38.086;2023-06-05T15:07:24;23.51;58.46
67364;HTU21D;54250;45.572;38.086;2023-06-05T15:09:51;23.50;58.64
67364;HTU21D;54250;45.572;38.086;2023-06-05T15:12:17;23.45;58.58
67364;HTU21D;54250;45.572;38.086;2023-06-05T15:14:43;23.34;58.72
67364;HTU21D;54250;45.572;38.086;2023-06-05T15:17:10;23.27;58.80
67364;HTU21D;54250;45.572;38.086;2023-06-05T15:19:36;23.13;59.03
67364;HTU21D;54250;45.572;38.086;2023-06-05T15:22:02;23.03;58.99
67364;HTU21D;54250;45.572;38.086;2023-06-05T15:24:28;23.02;58.93
67364;HTU21D;54250;45.572;38.086;2023-06-05T15:26:54;23.03;59.12
67364;HTU21D;54250;45.572;38.086;2023-06-05T15:29:20;23.03;59.16
67364;HTU21D;54250;45.572;38.086;2023-06-05T15:31:46;23.01;59.24
67364;HTU21D;54250;45.572;38.086;2023-06-05T15:34:12;22.93;59.44
67364;HTU21D;54250;45.572;38.086;2023-06-05T15:36:38;22.82;59.45
67364;HTU21D;54250;45.572;38.086;2023-06-05T15:39:05;22.67;59.51
67364;HTU21D;54250;45.572;38.086;2023-06-05T15:41:31;22.52;59.78
67364;HTU21D;54250;45.572;38.086;2023-06-05T15:43:57;22.37;60.11
67364;HTU21D;54250;45.572;38.086;2023-06-05T15:46:23;22.22;60.16